createdAt,value
2018-06-10T00:01:39.611Z,19.45
2018-06-10T00:04:08.116Z,21.15
2018-06-10T00:06:36.700Z,21.95
2018-06-10T00:09:07.476Z,22.07
2018-06-10T00:11:40.655Z,19.42
2018-06-10T00:14:10.696Z,17.48
2018-06-10T00:16:39.534Z,16.15
2018-06-10T00:19:08.177Z,15.18
2018-06-10T00:21:37.143Z,14.83
2018-06-10T00:24:06.397Z,14.63
2018-06-10T00:26:36.378Z,14.53
2018-06-10T00:29:10.214Z,13.43
2018-06-10T00:31:39.213Z,15.08
2018-06-10T00:34:07.680Z,14.13
2018-06-10T00:36:36.161Z,14.78
2018-06-10T00:39:07.862Z,15.13
2018-06-10T00:41:37.121Z,15.35
2018-06-10T00:44:05.735Z,13.98
2018-06-10T00:46:34.232Z,13.68
2018-06-10T00:49:02.727Z,14.50
2018-06-10T00:51:31.275Z,12.45
2018-06-10T00:53:59.774Z,11.97
2018-06-10T00:56:39.471Z,11.70
2018-06-10T00:59:08.046Z,13.72
2018-06-10T01:01:36.627Z,14.53
2018-06-10T01:04:05.215Z,13.65
2018-06-10T01:06:33.794Z,13.65
2018-06-10T01:09:02.451Z,16.00
2018-06-10T01:11:30.939Z,18.52
2018-06-10T01:13:59.563Z,18.00
2018-06-10T01:16:28.107Z,15.08
2018-06-10T01:18:56.758Z,15.98
2018-06-10T01:21:25.650Z,18.15
2018-06-10T01:23:54.198Z,17.12
2018-06-10T01:26:27.971Z,14.95
2018-06-10T01:28:56.524Z,16.62
2018-06-10T01:31:25.140Z,17.52
2018-06-10T01:33:53.984Z,15.03
2018-06-10T01:36:22.606Z,14.40
2018-06-10T01:38:51.383Z,12.58
2018-06-10T01:41:20.160Z,12.40
2018-06-10T01:43:49.248Z,12.45
2018-06-10T01:46:18.151Z,13.30
2018-06-10T01:48:48.233Z,13.85
2018-06-10T01:51:17.050Z,13.18
2018-06-10T01:53:45.744Z,13.85
2018-06-10T01:56:14.619Z,13.58
2018-06-10T01:58:43.333Z,14.87
2018-06-10T02:01:11.846Z,13.85
2018-06-10T02:03:40.382Z,13.93
2018-06-10T02:06:08.879Z,12.10
2018-06-10T02:08:37.423Z,12.73
2018-06-10T02:11:05.866Z,13.05
2018-06-10T02:13:34.304Z,12.43
2018-06-10T02:16:02.783Z,12.00
2018-06-10T02:18:31.270Z,12.10
2018-06-10T02:20:59.794Z,12.05
2018-06-10T02:23:28.332Z,13.28
2018-06-10T02:25:56.889Z,11.48
2018-06-10T02:28:25.539Z,11.90
2018-06-10T02:30:54.112Z,11.50
2018-06-10T02:33:22.753Z,10.90
2018-06-10T02:35:51.829Z,12.03
2018-06-10T02:38:20.704Z,11.25
2018-06-10T02:40:49.522Z,11.85
2018-06-10T02:43:18.393Z,11.80
2018-06-10T02:45:47.380Z,11.90
2018-06-10T02:48:16.304Z,11.22
2018-06-10T02:50:44.906Z,12.95
2018-06-10T02:53:13.439Z,12.55
2018-06-10T02:55:41.873Z,12.85
2018-06-10T02:58:10.651Z,12.98
2018-06-10T03:00:39.232Z,13.00
2018-06-10T03:03:07.745Z,13.60
2018-06-10T03:05:36.232Z,13.58
2018-06-10T03:08:04.708Z,13.13
2018-06-10T03:10:38.716Z,14.40
2018-06-10T03:13:07.193Z,14.07
2018-06-10T03:15:35.655Z,15.15
2018-06-10T03:18:04.098Z,14.05
2018-06-10T03:20:32.744Z,14.20
2018-06-10T03:23:01.195Z,14.80
2018-06-10T03:25:29.684Z,14.33
2018-06-10T03:27:58.178Z,12.63
2018-06-10T03:30:26.638Z,13.48
2018-06-10T03:32:55.121Z,13.38
2018-06-10T03:35:23.882Z,13.78
2018-06-10T03:37:52.490Z,13.72
2018-06-10T03:40:21.403Z,13.10
2018-06-10T03:42:50.112Z,13.00
2018-06-10T03:45:19.059Z,12.33
2018-06-10T03:47:47.722Z,13.35
2018-06-10T03:50:16.608Z,14.23
2018-06-10T03:52:45.346Z,14.40
2018-06-10T03:55:13.864Z,14.05
2018-06-10T03:57:42.364Z,13.72
2018-06-10T04:00:10.608Z,14.78
2018-06-10T04:02:39.252Z,14.10
2018-06-10T04:05:08.055Z,12.78
2018-06-10T04:07:38.579Z,13.48
2018-06-10T04:10:07.063Z,13.53
2018-06-10T04:12:35.583Z,14.13
2018-06-10T04:15:04.144Z,12.85
2018-06-10T04:17:32.629Z,12.98
2018-06-10T04:20:01.107Z,13.62
2018-06-10T04:22:29.495Z,14.63
2018-06-10T04:24:58.058Z,13.72
2018-06-10T04:27:26.738Z,13.70
2018-06-10T04:29:55.317Z,14.00
2018-06-10T04:32:24.352Z,13.93
2018-06-10T04:34:52.988Z,13.08
2018-06-10T04:37:27.833Z,14.03
2018-06-10T04:39:56.515Z,15.18
2018-06-10T04:42:25.350Z,14.05
2018-06-10T04:44:53.992Z,13.25
2018-06-10T04:47:23.261Z,12.45
2018-06-10T04:49:52.059Z,13.35
2018-06-10T04:52:21.058Z,12.45
2018-06-10T04:54:50.229Z,13.05
2018-06-10T04:57:19.154Z,12.50
2018-06-10T04:59:47.795Z,12.18
2018-06-10T05:02:16.787Z,12.68
2018-06-10T05:04:45.236Z,13.05
2018-06-10T05:07:13.669Z,12.95
2018-06-10T05:09:42.204Z,13.75
2018-06-10T05:12:10.649Z,12.98
2018-06-10T05:14:39.430Z,12.70
2018-06-10T05:17:08.854Z,12.58
2018-06-10T05:19:37.382Z,12.20
2018-06-10T05:22:06.644Z,13.28
2018-06-10T05:24:36.232Z,11.65
2018-06-10T05:27:04.978Z,12.98
2018-06-10T05:29:33.671Z,13.90
2018-06-10T05:32:02.274Z,12.95
2018-06-10T05:34:30.818Z,12.47
2018-06-10T05:36:59.338Z,13.88
2018-06-10T05:39:27.956Z,12.58
2018-06-10T05:41:56.401Z,13.10
2018-06-10T05:44:25.071Z,13.48
2018-06-10T05:46:53.651Z,12.90
2018-06-10T05:49:22.501Z,12.58
2018-06-10T05:51:51.248Z,12.25
2018-06-10T05:54:20.324Z,11.83
2018-06-10T05:56:51.059Z,13.30
2018-06-10T05:59:19.679Z,12.75
2018-06-10T06:01:48.733Z,14.03
2018-06-10T06:04:17.827Z,12.80
2018-06-10T06:06:47.112Z,18.95
2018-06-10T06:09:16.906Z,18.87
2018-06-10T06:11:46.365Z,16.35
2018-06-10T06:14:15.118Z,14.15
2018-06-10T06:16:43.912Z,19.55
2018-06-10T06:19:14.065Z,16.57
2018-06-10T06:21:52.244Z,20.25
2018-06-10T06:24:21.071Z,23.85
2018-06-10T06:26:50.059Z,25.15
2018-06-10T06:29:31.215Z,26.15
2018-06-10T06:32:05.682Z,23.87
2018-06-10T06:34:54.625Z,20.75
2018-06-10T06:37:23.977Z,28.95
2018-06-10T06:39:56.733Z,21.82
2018-06-10T06:42:30.973Z,17.27
2018-06-10T06:45:01.908Z,15.80
2018-06-10T06:47:32.048Z,17.05
2018-06-10T06:50:03.512Z,17.92
2018-06-10T06:52:35.973Z,16.20
2018-06-10T06:55:10.563Z,17.80
2018-06-10T06:57:41.273Z,15.63
2018-06-10T07:00:10.511Z,18.73
2018-06-10T07:02:39.408Z,15.08
2018-06-10T07:05:08.495Z,16.55
2018-06-10T07:07:37.165Z,18.98
2018-06-10T07:10:05.694Z,16.97
2018-06-10T07:12:34.203Z,16.77
2018-06-10T07:15:02.959Z,14.45
2018-06-10T07:17:33.372Z,13.00
2018-06-10T07:20:05.320Z,14.63
2018-06-10T07:22:34.530Z,13.43
2018-06-10T07:25:04.342Z,13.53
2018-06-10T07:27:35.579Z,18.45
2018-06-10T07:30:06.777Z,23.65
2018-06-10T07:32:59.088Z,19.50
2018-06-10T07:35:31.678Z,16.12
2018-06-10T07:38:01.584Z,22.87
2018-06-10T07:40:30.776Z,14.28
2018-06-10T07:43:06.026Z,18.65
2018-06-10T07:45:36.981Z,18.90
2018-06-10T07:48:08.615Z,25.32
2018-06-10T07:50:37.792Z,24.20
2018-06-10T07:53:07.203Z,20.17
2018-06-10T07:55:39.799Z,25.77
2018-06-10T07:58:08.984Z,23.52
2018-06-10T08:00:37.444Z,22.80
2018-06-10T08:03:06.073Z,22.32
2018-06-10T08:05:37.698Z,22.93
2018-06-10T08:08:06.345Z,27.73
2018-06-10T08:10:37.722Z,22.75
2018-06-10T08:13:13.272Z,26.02
2018-06-10T08:15:43.510Z,26.05
2018-06-10T08:18:13.043Z,19.42
2018-06-10T08:20:41.561Z,16.25
2018-06-10T08:23:10.416Z,13.70
2018-06-10T08:25:39.053Z,20.50
2018-06-10T08:28:08.031Z,28.57
2018-06-10T08:30:36.642Z,20.95
2018-06-10T08:33:05.484Z,17.67
2018-06-10T08:35:34.155Z,16.82
2018-06-10T08:38:02.999Z,16.12
2018-06-10T08:40:32.723Z,20.77
2018-06-10T08:43:01.457Z,21.95
2018-06-10T08:45:30.378Z,26.00
2018-06-10T08:47:59.242Z,22.07
2018-06-10T08:50:27.994Z,17.85
2018-06-10T08:52:58.402Z,16.93
2018-06-10T08:55:30.290Z,17.60
2018-06-10T08:57:59.220Z,27.13
2018-06-10T09:00:27.754Z,21.62
2018-06-10T09:02:59.110Z,18.35
2018-06-10T09:05:27.646Z,16.70
2018-06-10T09:07:57.157Z,18.07
2018-06-10T09:10:26.526Z,18.32
2018-06-10T09:12:55.679Z,21.17
2018-06-10T09:15:25.091Z,26.27
2018-06-10T09:17:54.233Z,25.00
2018-06-10T09:20:23.800Z,18.50
2018-06-10T09:22:52.800Z,23.85
2018-06-10T09:25:21.947Z,24.95
2018-06-10T09:27:51.243Z,23.30
2018-06-10T09:30:20.947Z,23.70
2018-06-10T09:32:49.796Z,29.42
2018-06-10T09:35:18.590Z,27.13
2018-06-10T09:37:47.670Z,26.02
2018-06-10T09:40:17.023Z,25.15
2018-06-10T09:42:49.298Z,26.55
2018-06-10T09:45:18.418Z,21.62
2018-06-10T09:47:47.175Z,26.42
2018-06-10T09:50:17.042Z,20.77
2018-06-10T09:52:46.301Z,17.00
2018-06-10T09:55:15.874Z,16.95
2018-06-10T09:57:45.242Z,20.40
2018-06-10T10:00:21.308Z,22.37
2018-06-10T10:02:51.607Z,23.05
2018-06-10T10:05:26.964Z,22.70
2018-06-10T10:07:57.917Z,21.82
2018-06-10T10:10:26.939Z,19.10
2018-06-10T10:12:55.863Z,25.35
2018-06-10T10:15:24.848Z,22.73
2018-06-10T10:17:53.631Z,19.62
2018-06-10T10:20:26.144Z,17.75
2018-06-10T10:22:54.830Z,22.22
2018-06-10T10:25:24.115Z,22.05
2018-06-10T10:27:53.089Z,20.10
2018-06-10T10:30:22.215Z,18.77
2018-06-10T10:32:51.837Z,16.50
2018-06-10T10:35:21.727Z,22.13
2018-06-10T10:37:50.744Z,17.02
2018-06-10T10:40:20.636Z,14.90
2018-06-10T10:42:50.968Z,14.75
2018-06-10T10:45:20.093Z,15.88
2018-06-10T10:47:49.894Z,17.73
2018-06-10T10:50:19.103Z,13.45
2018-06-10T10:52:48.328Z,11.00
2018-06-10T10:55:17.400Z,18.07
2018-06-10T10:57:47.370Z,11.90
2018-06-10T11:00:16.087Z,13.10
2018-06-10T11:02:44.961Z,14.38
2018-06-10T11:05:13.535Z,14.25
2018-06-10T11:07:42.239Z,12.28
2018-06-10T11:10:10.884Z,10.90
2018-06-10T11:12:39.302Z,14.65
2018-06-10T11:15:07.779Z,14.98
2018-06-10T11:17:36.343Z,12.03
2018-06-10T11:20:04.919Z,14.83
2018-06-10T11:22:33.426Z,12.90
2018-06-10T11:25:01.976Z,10.43
2018-06-10T11:27:30.521Z,11.38
2018-06-10T11:29:59.155Z,9.60
2018-06-10T11:32:27.988Z,11.35
2018-06-10T11:34:57.491Z,9.53
2018-06-10T11:37:27.621Z,10.18
2018-06-10T11:39:58.181Z,11.25
2018-06-10T11:42:27.179Z,11.55
2018-06-10T11:44:56.753Z,17.02
2018-06-10T11:47:25.637Z,14.60
2018-06-10T11:49:57.903Z,12.82
2018-06-10T11:52:26.719Z,11.05
2018-06-10T11:54:55.611Z,13.35
2018-06-10T11:57:27.736Z,12.58
2018-06-10T11:59:58.103Z,11.90
2018-06-10T12:02:26.530Z,10.95
2018-06-10T12:04:55.215Z,12.80
2018-06-10T12:07:24.563Z,13.83
2018-06-10T12:09:53.482Z,12.82
2018-06-10T12:12:23.176Z,12.90
2018-06-10T12:14:52.057Z,12.30
2018-06-10T12:17:21.490Z,12.50
2018-06-10T12:19:51.035Z,9.75
2018-06-10T12:22:25.539Z,9.88
2018-06-10T12:24:55.803Z,8.70
2018-06-10T12:27:25.325Z,9.28
2018-06-10T12:29:54.008Z,8.63
2018-06-10T12:32:23.533Z,7.95
2018-06-10T12:34:52.526Z,7.10
2018-06-10T12:37:24.773Z,6.50
2018-06-10T12:40:04.429Z,6.28
2018-06-10T12:42:33.165Z,6.45
2018-06-10T12:45:04.537Z,6.05
2018-06-10T12:47:33.456Z,6.42
2018-06-10T12:50:02.387Z,7.35
2018-06-10T12:52:30.939Z,6.60
2018-06-10T12:55:00.177Z,6.42
2018-06-10T12:57:29.003Z,6.80
2018-06-10T12:59:57.524Z,7.45
2018-06-10T13:02:28.332Z,6.17
2018-06-10T13:04:57.047Z,6.83
2018-06-10T13:07:26.048Z,6.20
2018-06-10T13:09:54.922Z,6.45
2018-06-10T13:12:24.272Z,6.60
2018-06-10T13:14:53.075Z,5.95
2018-06-10T13:17:22.295Z,5.62
2018-06-10T13:19:50.867Z,5.70
2018-06-10T13:22:19.588Z,5.75
2018-06-10T13:24:48.230Z,6.22
2018-06-10T13:27:19.173Z,7.33
2018-06-10T13:29:48.918Z,7.40
2018-06-10T13:32:23.249Z,7.80
2018-06-10T13:34:52.028Z,7.47
2018-06-10T13:37:20.368Z,7.42
2018-06-10T13:39:49.233Z,7.17
2018-06-10T13:42:18.419Z,8.25
2018-06-10T13:44:47.084Z,7.65
2018-06-10T13:47:16.464Z,7.75
2018-06-10T13:49:45.621Z,7.20
2018-06-10T13:52:17.061Z,7.78
2018-06-10T13:54:47.965Z,11.65
2018-06-10T13:57:18.911Z,11.48
2018-06-10T13:59:50.116Z,11.75
2018-06-10T14:02:27.272Z,12.40
2018-06-10T14:04:56.305Z,10.93
2018-06-10T14:07:24.968Z,11.60
2018-06-10T14:09:53.602Z,11.80
2018-06-10T14:12:22.990Z,11.03
2018-06-10T14:14:51.974Z,11.30
2018-06-10T14:17:21.423Z,9.25
2018-06-10T14:19:53.059Z,8.53
2018-06-10T14:22:23.647Z,8.58
2018-06-10T14:24:52.634Z,7.97
2018-06-10T14:27:21.810Z,7.78
2018-06-10T14:29:50.381Z,9.50
2018-06-10T14:32:21.669Z,8.85
2018-06-10T14:34:52.299Z,9.38
2018-06-10T14:37:22.703Z,8.20
2018-06-10T14:39:51.815Z,6.45
2018-06-10T14:42:20.850Z,7.80
2018-06-10T14:44:50.340Z,7.85
2018-06-10T14:47:28.315Z,7.30
2018-06-10T14:51:28.150Z,6.97
2018-06-10T14:53:58.995Z,6.90
2018-06-10T14:56:27.778Z,6.28
2018-06-10T14:58:56.367Z,7.47
2018-06-10T15:01:25.193Z,5.75
2018-06-10T15:03:53.992Z,5.83
2018-06-10T15:06:23.239Z,5.10
2018-06-10T15:08:58.715Z,5.22
2018-06-10T15:11:29.709Z,5.55
2018-06-10T15:13:59.249Z,6.22
2018-06-10T15:16:29.233Z,7.08
2018-06-10T15:18:57.892Z,6.62
2018-06-10T15:21:26.675Z,6.50
2018-06-10T15:23:55.775Z,5.78
2018-06-10T15:26:25.341Z,5.55
2018-06-10T15:28:54.143Z,5.33
2018-06-10T15:31:22.738Z,5.00
2018-06-10T15:33:51.412Z,4.92
2018-06-10T15:36:19.738Z,5.10
2018-06-10T15:38:48.434Z,4.87
2018-06-10T15:41:17.396Z,5.22
2018-06-10T15:43:47.433Z,4.80
2018-06-10T15:46:16.093Z,4.95
2018-06-10T15:48:50.265Z,4.60
2018-06-10T15:51:19.357Z,4.83
2018-06-10T15:53:48.548Z,5.70
2018-06-10T15:56:18.389Z,5.83
2018-06-10T15:58:47.458Z,6.17
2018-06-10T16:01:17.268Z,6.53
2018-06-10T16:03:48.456Z,8.20
2018-06-10T16:06:18.334Z,7.05
2018-06-10T16:08:50.727Z,6.60
2018-06-10T16:11:20.329Z,7.00
2018-06-10T16:13:53.326Z,7.67
2018-06-10T16:16:23.286Z,6.50
2018-06-10T16:18:56.152Z,6.97
2018-06-10T16:21:25.196Z,7.92
2018-06-10T16:23:54.182Z,7.70
2018-06-10T16:26:24.815Z,8.10
2018-06-10T16:28:53.298Z,7.97
2018-06-10T16:31:24.219Z,6.80
2018-06-10T16:33:53.588Z,7.83
2018-06-10T16:36:21.795Z,9.68
2018-06-10T16:38:58.192Z,14.07
2018-06-10T16:41:27.795Z,16.40
2018-06-10T16:43:56.359Z,28.70
2018-06-10T16:46:26.213Z,10.30
2018-06-10T16:48:54.898Z,8.48
2018-06-10T16:51:23.257Z,8.13
2018-06-10T16:53:52.267Z,8.80
2018-06-10T16:56:20.663Z,11.80
2018-06-10T16:58:49.089Z,15.72
2018-06-10T17:01:17.505Z,13.48
2018-06-10T17:03:45.941Z,16.97
2018-06-10T17:06:14.328Z,11.53
2018-06-10T17:08:43.696Z,12.68
2018-06-10T17:11:12.050Z,11.35
2018-06-10T17:13:40.796Z,11.18
2018-06-10T17:16:09.250Z,8.53
2018-06-10T17:18:37.639Z,8.83
2018-06-10T17:21:06.145Z,9.33
2018-06-10T17:23:34.547Z,14.47
2018-06-10T17:26:03.354Z,14.13
2018-06-10T17:28:31.858Z,10.93
2018-06-10T17:31:00.345Z,12.03
2018-06-10T17:33:28.728Z,21.00
2018-06-10T17:35:57.344Z,31.02
2018-06-10T17:38:25.693Z,40.43
2018-06-10T17:40:54.101Z,33.42
2018-06-10T17:43:22.458Z,28.73
2018-06-10T17:45:50.998Z,21.37
2018-06-10T17:48:19.567Z,14.30
2018-06-10T17:50:47.992Z,11.10
2018-06-10T17:53:16.450Z,10.98
2018-06-10T17:55:44.869Z,11.05
2018-06-10T17:58:13.245Z,10.60
2018-06-10T18:00:41.625Z,9.88
2018-06-10T18:03:09.972Z,10.72
2018-06-10T18:05:38.402Z,11.90
2018-06-10T18:08:06.782Z,11.43
2018-06-10T18:10:35.146Z,13.20
2018-06-10T18:13:03.629Z,13.38
2018-06-10T18:15:32.002Z,14.00
2018-06-10T18:18:00.335Z,13.05
2018-06-10T18:20:28.742Z,12.80
2018-06-10T18:22:57.105Z,12.78
2018-06-10T18:25:25.523Z,15.25
2018-06-10T18:27:53.997Z,12.07
2018-06-10T18:30:22.415Z,11.60
2018-06-10T18:32:50.809Z,11.03
2018-06-10T18:35:19.212Z,13.50
2018-06-10T18:37:47.659Z,12.13
2018-06-10T18:40:16.104Z,11.00
2018-06-10T18:42:44.427Z,9.88
2018-06-10T18:45:14.063Z,9.75
2018-06-10T18:47:42.130Z,9.30
2018-06-10T18:50:10.482Z,9.80
2018-06-10T18:52:38.883Z,11.80
2018-06-10T18:55:07.259Z,13.85
2018-06-10T18:57:35.720Z,15.20
2018-06-10T19:00:04.628Z,18.62
2018-06-10T19:02:32.980Z,17.87
2018-06-10T19:05:01.335Z,16.52
2018-06-10T19:07:29.815Z,14.60
2018-06-10T19:09:58.205Z,14.30
2018-06-10T19:12:26.591Z,12.70
2018-06-10T19:14:54.941Z,11.12
2018-06-10T19:17:23.322Z,11.15
2018-06-10T19:19:51.744Z,10.60
2018-06-10T19:22:19.854Z,11.10
2018-06-10T19:24:48.182Z,11.33
2018-06-10T19:27:17.081Z,11.30
2018-06-10T19:29:45.500Z,11.57
2018-06-10T19:32:14.058Z,10.30
2018-06-10T19:34:43.095Z,11.03
2018-06-10T19:37:13.262Z,10.80
2018-06-10T19:39:41.680Z,11.25
2018-06-10T19:42:10.116Z,11.10
2018-06-10T19:44:38.449Z,11.50
2018-06-10T19:47:07.090Z,14.13
2018-06-10T19:49:35.692Z,13.83
2018-06-10T19:52:04.245Z,11.85
2018-06-10T19:54:32.580Z,11.95
2018-06-10T19:57:01.002Z,11.45
2018-06-10T19:59:29.406Z,15.23
2018-06-10T20:01:57.795Z,17.00
2018-06-10T20:04:26.150Z,15.58
2018-06-10T20:06:54.527Z,15.25
2018-06-10T20:09:22.891Z,14.38
2018-06-10T20:11:51.266Z,12.78
2018-06-10T20:14:20.202Z,12.73
2018-06-10T20:16:48.558Z,11.53
2018-06-10T20:19:16.926Z,11.00
2018-06-10T20:21:46.095Z,12.63
2018-06-10T20:24:14.417Z,11.78
2018-06-10T20:26:42.773Z,15.48
2018-06-10T20:29:11.693Z,14.00
2018-06-10T20:31:40.104Z,13.55
2018-06-10T20:34:08.464Z,12.53
2018-06-10T20:36:36.933Z,11.15
2018-06-10T20:39:07.642Z,11.88
2018-06-10T20:41:37.043Z,16.77
2018-06-10T20:44:05.530Z,16.23
2018-06-10T20:46:33.963Z,18.45
2018-06-10T20:49:03.394Z,16.87
2018-06-10T20:51:31.783Z,18.05
2018-06-10T20:54:00.132Z,13.55
2018-06-10T20:56:28.543Z,12.13
2018-06-10T20:58:56.927Z,13.03
2018-06-10T21:01:26.763Z,12.82
2018-06-10T21:03:55.097Z,12.18
2018-06-10T21:06:23.493Z,11.88
2018-06-10T21:08:51.887Z,14.98
2018-06-10T21:11:20.249Z,21.50
2018-06-10T21:13:48.635Z,20.62
2018-06-10T21:16:17.043Z,17.37
2018-06-10T21:18:46.767Z,18.95
2018-06-10T21:21:15.262Z,19.30
2018-06-10T21:23:43.616Z,23.07
2018-06-10T21:26:12.004Z,20.57
2018-06-10T21:28:40.399Z,21.37
2018-06-10T21:31:08.758Z,19.32
2018-06-10T21:33:37.192Z,18.07
2018-06-10T21:36:05.532Z,18.30
2018-06-10T21:38:33.889Z,14.68
2018-06-10T21:41:03.227Z,15.00
2018-06-10T21:43:31.744Z,12.23
2018-06-10T21:46:00.148Z,11.03
2018-06-10T21:48:28.717Z,12.05
2018-06-10T21:50:57.158Z,11.30
2018-06-10T21:53:25.558Z,12.40
2018-06-10T21:55:53.909Z,12.37
2018-06-10T21:58:22.596Z,13.28
2018-06-10T22:00:51.040Z,15.08
2018-06-10T22:03:19.547Z,14.87
2018-06-10T22:05:48.927Z,15.48
2018-06-10T22:08:17.616Z,14.23
2018-06-10T22:10:46.078Z,11.48
2018-06-10T22:13:14.961Z,10.43
2018-06-10T22:15:43.294Z,9.23
2018-06-10T22:18:12.303Z,8.48
2018-06-10T22:20:40.655Z,8.28
2018-06-10T22:23:09.034Z,9.73
2018-06-10T22:25:38.268Z,13.78
2018-06-10T22:28:06.702Z,14.30
2018-06-10T22:30:35.713Z,12.63
2018-06-10T22:33:04.080Z,15.63
2018-06-10T22:35:32.894Z,12.65
2018-06-10T22:38:02.141Z,13.72
2018-06-10T22:40:30.599Z,13.22
2018-06-10T22:42:59.507Z,15.72
2018-06-10T22:45:27.862Z,16.90
2018-06-10T22:47:56.588Z,22.42
2018-06-10T22:50:24.908Z,19.27
2018-06-10T22:53:07.492Z,21.07
2018-06-10T22:55:36.008Z,21.23
2018-06-10T22:58:04.371Z,18.60
2018-06-10T23:00:32.754Z,17.12
2018-06-10T23:03:01.442Z,15.70
2018-06-10T23:05:29.922Z,13.30
2018-06-10T23:07:58.605Z,16.12
2018-06-10T23:10:26.947Z,13.78
2018-06-10T23:12:56.279Z,14.93
2018-06-10T23:15:24.732Z,12.65
2018-06-10T23:17:53.234Z,11.20
2018-06-10T23:20:21.786Z,12.15
2018-06-10T23:22:50.111Z,10.85
2018-06-10T23:25:20.125Z,11.40
2018-06-10T23:27:48.721Z,10.48
2018-06-10T23:30:17.141Z,15.38
2018-06-10T23:32:45.475Z,13.70
2018-06-10T23:35:13.806Z,16.02
2018-06-10T23:37:42.145Z,16.15
2018-06-10T23:40:10.694Z,13.03
2018-06-10T23:42:39.164Z,12.85
2018-06-10T23:45:07.621Z,13.08
2018-06-10T23:47:35.990Z,17.30
2018-06-10T23:50:04.349Z,14.95
2018-06-10T23:52:32.826Z,13.80
2018-06-10T23:55:01.210Z,13.32
2018-06-10T23:57:29.569Z,14.33
2018-06-10T23:59:58.012Z,14.18
